CheckWX is a tool to help pilots better visualize weather data.  It is not intended as a substitute for an official pre-flight weather briefing.

02:39:38 UTC

KBNW METAR
Boone Municipal Airport
Boone, Iowa, USA
Current

25 mins ago

KBNW 180215Z AUTO 34008KT 3SM -SN BKN013 OVC019 M06/M06 A3001 RMK AO2
Observed
Feb-18 @ 02:15 UTC
Wind
  • 340° at 8 KTS
Visibility
3 SM
Flight Rules
MVFR
Conditions
Light Snow
Cloud Levels
  • Broken at 1,300' AGL
  • Overcast at 1,900' AGL
Temperature
-6°C / 21°F
Dewpoint
-6°C / 21°F
Humidity
100%
Altimeter
30.01" Hg
Pressure
1016.22 hPa
Previous

45 mins ago

KBNW 180155Z AUTO 33008KT 2SM -SN FEW005 BKN013 OVC019 M06/M06 A3000 RMK AO2
Observed
Feb-18 @ 01:55 UTC
Wind
  • 330° at 8 KTS
Visibility
2 SM
Flight Rules
IFR
Conditions
Light Snow
Cloud Levels
  • Few at 500' AGL
  • Broken at 1,300' AGL
  • Overcast at 1,900' AGL
Temperature
-6°C / 21°F
Dewpoint
-6°C / 21°F
Humidity
100%
Altimeter
30" Hg
Pressure
1015.92 hPa
Previous

1 hour ago

KBNW 180135Z AUTO 33009KT 3SM -SN FEW013 BKN018 OVC024 M06/M06 A2999 RMK AO2
Observed
Feb-18 @ 01:35 UTC
Wind
  • 330° at 9 KTS
Visibility
3 SM
Flight Rules
MVFR
Conditions
Light Snow
Cloud Levels
  • Few at 1,300' AGL
  • Broken at 1,800' AGL
  • Overcast at 2,400' AGL
Temperature
-6°C / 21°F
Dewpoint
-6°C / 21°F
Humidity
100%
Altimeter
29.99" Hg
Pressure
1015.62 hPa